Rajiv Gandhi International Airport
VOHS : now visible

Airfield :











YOU CAN JOIN US ON...

 
LOGIN :

Register | Disclaimer

   EN    FR    IT 

 









Legend :    VFR   Marginal VFR   IFR   Intensive IFR   Very Intensive IFR
Visi :
Ceiling :
>= 8 km
>= 3000ft
5 to 8 km
1000 to 3000 ft
1500m to 5 km
500 to 1000 ft
800 to 1500m
200 to 500 ft
< 800m
< 200 ft
Symbols :   Thunderstorms  Fog  Heavy snow  Heavy precipitations  Wind > 20 kt







- Airport Elevation : 0 ft
- IATA code : HYD


VOHS - Rajiv Gandhi International

CURRENT METAR :
  • 241530Z 20003KT 6000 SCT015 SCT025 FEW030CB 28/25 COR Q1009 NOSIG

EXPIRED METARs :
  • 241500Z 23003KT 6000 SCT015 SCT025 FEW030CB 28/25 Q1008 NOSIG
  • 241430Z 22003KT 6000 SCT015 SCT025 FEW030CB 28/24 Q1008 NOSIG
  • 241400Z 24003KT 6000 SCT015 SCT025 28/24 Q1007 NOSIG
  • 241330Z 28006KT 6000 SCT015 SCT025 29/24 Q1007 NOSIG
  • 241300Z 27007KT 6000 SCT015 SCT025 29/24 Q1006 NOSIG
  • 241230Z 26004KT 6000 SCT015 SCT025 FEW030CB 31/23 Q1006 NOSIG

TAF TAF VOHS
Valid from the 24 at 15:00 until the 25 at 00:00 UTC


241400Z 2415/2424 28010KT 6000 SCT015 BKN100
TEMPO 2417/2424 30015KT 3000 TSRA BKN010 FEW030CB BKN080
VOMF FIR / Asia



MET'MAP, your aeronautical weather chart ! - Copyright ORBIFLY December 2007 - Disclaimer

ORBIFLY MET'MAP TEAM :

Programming & Development : Alexandra Zaïnal
Concept & Development : Baudouin d'Aumeries
Co-Development & Prog : Marc-Olivier Méhu
Technical & hardware support : Manuel Goepfert

Contact : metmap@orbifly.com




SOURCES & CREDITS :

   NOAA       Earth
Advisory